ΕΜΥ, Εθνική Μετεωρολογική Υπηρεσία - Δελτία Καιρού, Προγνώσεις

ΑΕΡΟΝΑΥΤΙΛΙΑ

GREEK AIRPORTS CODES

TAF LGRP 080500Z 0806/0906 31008KT 9999 FEW018 SCT030 BECMG 0809/0811 SCT020 BKN050 PROB30 TEMPO 0812/0903 5000 RA SCT015 BKN020 PROB30 TEMPO 0812/0818 3000 SHRA SCT012CB BKN020=

EUROPEAN AIRPORTS CODES

LFPO 080900Z AUTO VRB03KT CAVOK 17/07 Q1024=